Time;durP1;ratioP1;P1;durP2;ratioP2;P2;SDS_P1;SDS_P2;PMS_P1;PMS_P2;Temp;Humidity;BMP_temperature;BMP_pressure;BME280_temperature;BME280_humidity;BME280_pressure;Samples;Min_cycle;Max_cycle;Signal;HPM_P1;HPM_P2
2020/12/15 00:02:12;;;;;;;6.45;4.40;;;11.50;99.90;;;;;;5022052;28;20645;-90
2020/12/15 00:04:38;;;;;;;5.55;3.88;;;11.40;99.90;;;;;;5021156;28;20181;-90
2020/12/15 00:07:04;;;;;;;5.18;3.58;;;11.40;99.90;;;;;;5037814;28;20173;-90
2020/12/15 00:09:29;;;;;;;4.82;3.22;;;11.50;99.90;;;;;;5028784;28;20704;-90
2020/12/15 00:11:57;;;;;;;6.60;3.95;;;11.40;99.90;;;;;;5021602;28;20172;-90
2020/12/15 00:14:22;;;;;;;10.18;3.70;;;11.40;99.90;;;;;;5022053;28;20215;-90
2020/12/15 00:16:50;;;;;;;6.95;3.63;;;11.40;99.90;;;;;;5023626;28;20181;-90
2020/12/15 00:19:15;;;;;;;4.63;3.88;;;11.50;99.90;;;;;;5032405;28;20259;-89
2020/12/15 00:21:43;;;;;;;5.57;3.92;;;11.50;99.90;;;;;;5044014;28;20259;-90
2020/12/15 00:24:10;;;;;;;4.68;3.88;;;11.50;99.90;;;;;;5044424;28;20188;-91
2020/12/15 00:26:36;;;;;;;4.38;3.88;;;11.50;99.90;;;;;;5047503;28;20184;-91
2020/12/15 00:29:02;;;;;;;4.05;3.72;;;11.50;99.90;;;;;;5041165;28;20204;-88
2020/12/15 00:31:36;;;;;;;6.10;4.15;;;11.50;99.90;;;;;;5044208;28;20176;-90
2020/12/15 00:34:03;;;;;;;4.63;3.95;;;11.40;99.90;;;;;;5038110;28;20200;-90
2020/12/15 00:36:29;;;;;;;5.97;3.95;;;11.50;99.90;;;;;;5020168;28;20200;-90
2020/12/15 00:38:57;;;;;;;3.97;3.53;;;11.40;99.90;;;;;;5042432;28;20176;-90
2020/12/15 00:41:23;;;;;;;5.55;4.50;;;11.40;99.90;;;;;;5056061;28;20633;-90
2020/12/15 00:43:49;;;;;;;6.30;4.18;;;11.40;99.90;;;;;;5042005;28;20178;-90
2020/12/15 00:46:15;;;;;;;4.55;4.15;;;11.40;99.90;;;;;;5043957;28;20525;-91
2020/12/15 00:48:42;;;;;;;8.85;4.05;;;11.40;99.90;;;;;;5038968;28;20176;-89
2020/12/15 00:51:13;;;;;;;6.60;4.00;;;11.50;99.90;;;;;;5041008;28;20263;-90
2020/12/15 00:53:41;;;;;;;6.97;4.55;;;11.50;99.90;;;;;;5040588;28;20195;-91
2020/12/15 00:56:07;;;;;;;8.02;4.40;;;11.50;99.90;;;;;;5023296;28;20202;-92
2020/12/15 00:58:35;;;;;;;6.07;3.97;;;11.50;99.90;;;;;;5039774;28;20255;-92
2020/12/15 01:01:01;;;;;;;6.00;4.47;;;11.50;99.90;;;;;;5039859;28;20180;-91
2020/12/15 01:03:30;;;;;;;5.43;4.03;;;11.50;99.90;;;;;;5050717;28;20160;-89
2020/12/15 01:05:57;;;;;;;9.95;4.82;;;11.50;99.90;;;;;;5043404;28;20153;-90
2020/12/15 01:08:23;;;;;;;6.85;3.85;;;11.50;99.90;;;;;;5059406;28;20231;-91
2020/12/15 01:10:51;;;;;;;7.25;3.97;;;11.50;99.90;;;;;;5051546;28;20183;-91
2020/12/15 01:13:17;;;;;;;10.38;4.25;;;11.60;99.90;;;;;;5036533;28;20207;-91
2020/12/15 01:15:42;;;;;;;8.27;4.05;;;11.60;99.90;;;;;;5036496;28;20625;-91
2020/12/15 01:18:10;;;;;;;5.43;4.20;;;11.60;99.90;;;;;;5036315;28;20234;-92
2020/12/15 01:20:36;;;;;;;9.23;4.05;;;11.60;99.90;;;;;;5041322;28;20175;-92
2020/12/15 01:23:03;;;;;;;9.38;4.63;;;11.60;99.90;;;;;;5059206;28;20184;-91
2020/12/15 01:25:28;;;;;;;5.55;4.30;;;11.60;99.90;;;;;;5059356;28;20153;-90
2020/12/15 01:27:54;;;;;;;9.93;4.47;;;11.60;99.90;;;;;;5046514;28;20171;-92
2020/12/15 01:30:20;;;;;;;4.68;3.88;;;11.60;99.90;;;;;;5035397;28;20528;-92
2020/12/15 01:32:46;;;;;;;4.82;4.22;;;11.60;99.90;;;;;;5035116;28;20637;-91
2020/12/15 01:35:11;;;;;;;5.72;4.05;;;11.60;99.90;;;;;;5052172;28;20234;-93
2020/12/15 01:37:37;;;;;;;5.47;4.40;;;11.70;99.90;;;;;;5035215;28;20175;-92
2020/12/15 01:40:04;;;;;;;6.05;3.72;;;11.60;99.90;;;;;;5035296;28;20262;-92
2020/12/15 01:42:29;;;;;;;5.72;4.18;;;11.60;99.90;;;;;;5036243;28;20527;-92
2020/12/15 01:44:56;;;;;;;6.78;4.03;;;11.70;99.90;;;;;;5035183;28;20168;-92
2020/12/15 01:47:21;;;;;;;5.13;3.85;;;11.70;99.90;;;;;;5034898;28;20176;-92
2020/12/15 01:49:48;;;;;;;4.45;4.05;;;11.70;99.90;;;;;;5015013;28;20260;-92
2020/12/15 01:52:14;;;;;;;4.07;3.67;;;11.70;99.90;;;;;;5036580;28;20630;-92
2020/12/15 01:54:40;;;;;;;4.78;3.80;;;11.70;99.90;;;;;;5014921;28;20335;-92
2020/12/15 01:57:07;;;;;;;7.28;4.18;;;11.70;99.90;;;;;;5031500;28;20200;-92
2020/12/15 01:59:33;;;;;;;5.97;4.20;;;11.70;99.90;;;;;;5014663;28;20202;-92
2020/12/15 02:01:59;;;;;;;7.85;4.53;;;11.80;99.90;;;;;;5017101;28;20267;-92
2020/12/15 02:04:24;;;;;;;6.45;3.80;;;11.80;99.90;;;;;;5034397;28;20172;-92
2020/12/15 02:06:51;;;;;;;6.10;3.63;;;11.70;99.90;;;;;;5018088;28;20172;-92
2020/12/15 02:09:18;;;;;;;6.43;3.85;;;11.80;99.90;;;;;;5034666;28;20175;-92
2020/12/15 02:11:45;;;;;;;7.90;4.40;;;11.70;99.90;;;;;;5035431;28;20172;-92
2020/12/15 02:14:11;;;;;;;6.10;4.32;;;11.70;99.90;;;;;;5017753;28;20576;-90
2020/12/15 02:16:41;;;;;;;5.15;4.25;;;11.70;99.90;;;;;;5018195;28;20176;-93
2020/12/15 02:19:14;;;;;;;9.02;3.80;;;11.80;99.90;;;;;;5034387;28;20198;-92
2020/12/15 02:21:54;;;;;;;5.28;3.88;;;11.70;99.90;;;;;;5034311;28;20207;-93
2020/12/15 02:24:20;;;;;;;7.60;3.70;;;11.80;99.90;;;;;;5032687;28;20231;-92
2020/12/15 02:26:46;;;;;;;6.35;4.15;;;11.70;99.90;;;;;;5014299;28;20176;-92
2020/12/15 02:29:12;;;;;;;4.80;3.80;;;11.70;99.90;;;;;;5024355;28;20618;-90
2020/12/15 02:31:38;;;;;;;6.75;3.72;;;11.60;99.90;;;;;;5035222;28;20617;-92
2020/12/15 02:34:04;;;;;;;5.40;3.90;;;11.60;99.90;;;;;;5017299;28;20219;-93
2020/12/15 02:36:31;;;;;;;5.15;4.03;;;11.60;99.90;;;;;;5017780;28;20172;-92
2020/12/15 02:39:11;;;;;;;7.95;4.63;;;11.60;99.90;;;;;;5017801;28;20203;-93
2020/12/15 02:41:37;;;;;;;5.88;3.90;;;11.70;99.90;;;;;;5033980;28;20168;-92
2020/12/15 02:44:05;;;;;;;4.88;4.18;;;11.70;99.90;;;;;;5033900;28;20184;-92
2020/12/15 02:46:31;;;;;;;8.05;4.05;;;11.70;99.90;;;;;;5039538;28;20243;-93
2020/12/15 02:48:57;;;;;;;5.85;3.88;;;11.80;99.90;;;;;;5033826;28;20178;-92
2020/12/15 02:51:23;;;;;;;4.03;3.65;;;11.80;99.90;;;;;;5050416;28;20262;-92
2020/12/15 02:53:50;;;;;;;4.25;3.85;;;11.80;99.90;;;;;;5033775;28;20206;-93
2020/12/15 02:56:23;;;;;;;8.82;4.05;;;11.80;99.90;;;;;;5033908;28;20183;-92
2020/12/15 02:58:50;;;;;;;5.90;4.57;;;11.80;99.90;;;;;;5033618;28;20183;-92
2020/12/15 03:01:16;;;;;;;4.20;3.90;;;11.80;99.90;;;;;;5033850;28;20168;-93
2020/12/15 03:03:42;;;;;;;10.85;4.93;;;11.80;99.90;;;;;;5033799;28;20566;-93
2020/12/15 03:06:08;;;;;;;4.97;4.25;;;11.70;99.90;;;;;;5033849;28;20180;-93
2020/12/15 03:08:34;;;;;;;5.60;4.35;;;11.70;99.90;;;;;;5017394;28;20183;-92
2020/12/15 03:11:01;;;;;;;6.70;4.47;;;11.80;99.90;;;;;;5017024;28;20180;-91
2020/12/15 03:13:27;;;;;;;7.65;4.63;;;11.80;99.90;;;;;;5018071;28;20299;-93
2020/12/15 03:15:52;;;;;;;7.30;5.00;;;11.80;99.90;;;;;;5017217;28;20199;-93
2020/12/15 03:18:18;;;;;;;7.22;4.70;;;11.80;99.90;;;;;;5016905;28;20172;-93
2020/12/15 03:20:47;;;;;;;8.13;4.55;;;11.80;99.90;;;;;;5033541;28;20179;-93
2020/12/15 03:23:17;;;;;;;6.05;5.25;;;11.80;99.90;;;;;;5033164;28;20195;-93
2020/12/15 03:25:43;;;;;;;5.07;4.68;;;11.80;99.90;;;;;;5033646;28;20180;-93
2020/12/15 03:28:09;;;;;;;5.88;4.68;;;11.80;99.90;;;;;;5033452;28;20736;-93
2020/12/15 03:30:35;;;;;;;7.15;5.25;;;11.70;99.90;;;;;;5037473;28;20160;-93
2020/12/15 03:33:01;;;;;;;8.90;5.38;;;11.70;99.90;;;;;;5040942;28;20200;-92
2020/12/15 03:35:27;;;;;;;6.88;5.15;;;11.70;99.90;;;;;;5057414;28;20153;-92
2020/12/15 03:37:55;;;;;;;5.68;5.18;;;11.70;99.90;;;;;;5056547;28;20152;-93
2020/12/15 03:40:21;;;;;;;6.35;5.00;;;11.70;99.90;;;;;;5035339;28;20176;-92
2020/12/15 03:42:47;;;;;;;6.07;5.50;;;11.70;99.90;;;;;;5037406;28;20272;-93
2020/12/15 03:45:13;;;;;;;8.07;5.40;;;11.60;99.90;;;;;;5017592;28;20197;-93
2020/12/15 03:47:39;;;;;;;10.30;4.85;;;11.70;99.90;;;;;;5034119;28;20176;-93
2020/12/15 03:50:05;;;;;;;6.43;5.30;;;11.70;99.90;;;;;;5054365;28;20188;-93
2020/12/15 03:52:30;;;;;;;6.95;5.38;;;11.70;99.90;;;;;;5057122;28;20183;-91
2020/12/15 03:54:56;;;;;;;5.95;5.30;;;11.70;99.90;;;;;;5056156;28;20176;-93
2020/12/15 03:57:21;;;;;;;6.60;5.55;;;11.70;99.90;;;;;;5017732;28;20259;-94
2020/12/15 03:59:47;;;;;;;10.18;5.22;;;11.80;99.90;;;;;;5034044;28;20173;-93
2020/12/15 04:02:13;;;;;;;6.60;5.82;;;11.70;99.90;;;;;;5035129;28;20172;-93
2020/12/15 04:04:38;;;;;;;8.02;5.70;;;11.80;99.90;;;;;;5051367;28;20188;-92
2020/12/15 04:07:04;;;;;;;6.45;5.30;;;11.70;99.90;;;;;;5008344;28;20184;-93
2020/12/15 04:09:29;;;;;;;6.60;5.47;;;11.70;99.90;;;;;;5037417;28;20183;-93
2020/12/15 04:11:55;;;;;;;5.70;5.20;;;11.60;99.90;;;;;;5020224;28;20529;-93
2020/12/15 04:14:21;;;;;;;8.98;5.63;;;11.60;99.90;;;;;;5020119;28;20215;-93
2020/12/15 04:16:46;;;;;;;7.25;5.70;;;11.70;99.90;;;;;;5020285;28;20183;-92
2020/12/15 04:19:12;;;;;;;5.80;5.28;;;11.70;99.90;;;;;;5020206;28;20618;-92
2020/12/15 04:21:37;;;;;;;6.55;5.85;;;11.70;99.90;;;;;;5020081;28;20186;-93
2020/12/15 04:24:03;;;;;;;6.53;5.82;;;11.60;99.90;;;;;;5035876;28;20199;-93
2020/12/15 04:26:29;;;;;;;6.55;5.78;;;11.70;99.90;;;;;;5037415;28;20176;-92
2020/12/15 04:28:54;;;;;;;6.15;5.07;;;11.60;99.90;;;;;;5020124;28;20195;-93
2020/12/15 04:31:22;;;;;;;5.35;4.85;;;11.60;99.90;;;;;;5036505;28;20180;-93
2020/12/15 04:33:48;;;;;;;8.88;5.53;;;11.60;99.90;;;;;;5036349;28;20196;-93
2020/12/15 04:36:14;;;;;;;4.97;4.57;;;11.40;99.90;;;;;;5019963;28;20168;-93
2020/12/15 04:38:39;;;;;;;6.90;5.45;;;11.50;99.90;;;;;;5036227;28;20505;-93
2020/12/15 04:41:05;;;;;;;6.95;5.53;;;11.50;99.90;;;;;;5019790;28;20195;-92
2020/12/15 04:43:33;;;;;;;5.55;5.07;;;11.50;99.90;;;;;;5019669;28;20176;-93
2020/12/15 04:46:01;;;;;;;7.85;5.22;;;11.60;99.90;;;;;;5036130;28;20532;-93
2020/12/15 04:48:31;;;;;;;6.90;4.93;;;11.60;99.90;;;;;;5036691;28;20172;-93
2020/12/15 04:50:58;;;;;;;12.15;5.70;;;11.50;99.90;;;;;;5036061;28;20187;-93
2020/12/15 04:53:27;;;;;;;5.95;5.30;;;11.60;99.90;;;;;;5037048;28;20191;-93
2020/12/15 04:55:55;;;;;;;8.77;5.40;;;11.50;99.90;;;;;;5035800;28;20175;-93
2020/12/15 04:58:23;;;;;;;5.50;5.00;;;11.50;99.90;;;;;;5052422;28;20668;-93
2020/12/15 05:00:49;;;;;;;6.90;5.97;;;11.60;99.90;;;;;;5036036;28;20207;-94
2020/12/15 05:03:20;;;;;;;6.97;5.40;;;11.60;99.90;;;;;;5035736;28;20275;-93
2020/12/15 05:05:49;;;;;;;5.97;5.43;;;11.60;99.90;;;;;;5035837;28;20196;-92
2020/12/15 05:08:15;;;;;;;6.45;5.63;;;11.60;99.90;;;;;;5035591;28;20172;-92
2020/12/15 05:10:44;;;;;;;6.38;5.13;;;11.60;99.90;;;;;;5035654;28;20169;-93
2020/12/15 05:13:10;;;;;;;6.78;5.05;;;11.60;99.90;;;;;;5035793;28;20204;-93
2020/12/15 05:15:35;;;;;;;5.55;5.15;;;11.70;99.90;;;;;;5035652;28;20190;-93
2020/12/15 05:18:05;;;;;;;6.95;5.05;;;11.60;99.90;;;;;;5035730;28;20172;-93
2020/12/15 05:20:33;;;;;;;9.25;5.25;;;11.60;99.90;;;;;;5035436;28;20176;-92
2020/12/15 05:22:59;;;;;;;5.55;5.03;;;11.60;99.90;;;;;;5036049;28;20295;-92
2020/12/15 05:25:29;;;;;;;5.65;5.07;;;11.60;99.90;;;;;;5035804;28;20172;-92
2020/12/15 05:27:59;;;;;;;7.22;5.65;;;11.60;99.90;;;;;;5035334;28;20171;-92
2020/12/15 05:30:25;;;;;;;7.18;4.95;;;11.60;99.90;;;;;;5035609;28;20251;-93
2020/12/15 05:32:56;;;;;;;5.57;4.90;;;11.60;99.90;;;;;;5036301;28;20187;-93
2020/12/15 05:35:36;;;;;;;10.73;4.38;;;11.50;99.90;;;;;;5035134;28;20287;-94
2020/12/15 05:38:04;;;;;;;8.25;4.30;;;11.60;99.90;;;;;;5034855;28;20175;-94
2020/12/15 05:40:30;;;;;;;4.63;4.20;;;11.60;99.90;;;;;;5035295;28;20358;-93
2020/12/15 05:42:57;;;;;;;4.57;4.07;;;11.70;99.90;;;;;;5034959;28;20314;-93
2020/12/15 05:45:24;;;;;;;8.30;4.13;;;11.70;99.90;;;;;;5036028;28;20258;-93
2020/12/15 05:47:51;;;;;;;4.97;4.30;;;11.80;99.90;;;;;;5015105;28;20179;-93
2020/12/15 05:50:22;;;;;;;5.43;3.60;;;11.80;99.90;;;;;;5014969;28;20251;-93
2020/12/15 05:53:02;;;;;;;5.10;3.95;;;11.80;99.90;;;;;;5031361;28;20187;-93
2020/12/15 05:55:28;;;;;;;8.00;3.92;;;11.90;99.90;;;;;;5031911;28;20200;-93
2020/12/15 05:57:55;;;;;;;6.60;4.00;;;12.00;99.90;;;;;;5031601;28;20172;-93
2020/12/15 06:00:23;;;;;;;7.22;3.85;;;12.00;99.90;;;;;;5038857;28;20172;-93
2020/12/15 06:02:58;;;;;;;5.22;3.63;;;12.00;99.90;;;;;;5054669;28;20180;-93
2020/12/15 06:05:37;;;;;;;6.15;3.70;;;12.10;99.90;;;;;;5055221;28;20148;-93
2020/12/15 06:08:04;;;;;;;5.38;3.20;;;12.10;99.90;;;;;;5035057;28;20199;-93
2020/12/15 06:10:31;;;;;;;7.40;3.45;;;12.10;99.90;;;;;;5034413;28;20184;-93
2020/12/15 06:12:59;;;;;;;4.75;3.63;;;12.20;99.90;;;;;;5018151;28;20220;-93
2020/12/15 06:15:25;;;;;;;6.28;3.17;;;12.20;99.90;;;;;;5034568;28;20176;-93
2020/12/15 06:17:54;;;;;;;4.13;2.88;;;12.30;99.90;;;;;;5037818;28;20160;-93
2020/12/15 06:20:20;;;;;;;2.92;2.72;;;12.30;99.90;;;;;;5057907;28;20153;-93
2020/12/15 06:22:52;;;;;;;3.00;2.70;;;12.30;99.90;;;;;;5053212;28;20188;-93
2020/12/15 06:25:32;;;;;;;4.13;2.75;;;12.30;99.90;;;;;;5034004;28;20179;-94
2020/12/15 06:28:10;;;;;;;3.28;2.90;;;12.30;99.90;;;;;;5034814;28;20187;-93
2020/12/15 06:30:41;;;;;;;2.90;2.70;;;12.30;99.90;;;;;;5035173;28;20160;-93
2020/12/15 06:33:09;;;;;;;3.78;2.78;;;12.40;99.90;;;;;;5034148;28;20200;-93
2020/12/15 06:35:35;;;;;;;7.60;3.45;;;12.40;99.90;;;;;;5034144;28;20621;-93
2020/12/15 06:38:04;;;;;;;4.22;3.75;;;12.40;99.90;;;;;;5034181;28;20164;-93
2020/12/15 06:40:45;;;;;;;7.05;3.70;;;12.50;99.90;;;;;;5017841;28;20176;-93
2020/12/15 06:43:13;;;;;;;4.75;3.17;;;12.50;99.90;;;;;;5034207;28;20176;-93
2020/12/15 06:45:39;;;;;;;3.65;2.83;;;12.40;99.90;;;;;;5034271;28;20164;-93
2020/12/15 06:48:05;;;;;;;4.70;3.20;;;12.20;99.90;;;;;;5019049;28;20628;-93
2020/12/15 06:50:45;;;;;;;8.07;3.03;;;12.20;99.90;;;;;;5038181;28;20232;-93
2020/12/15 06:53:14;;;;;;;5.50;3.85;;;12.10;99.90;;;;;;5035089;28;20246;-93
2020/12/15 06:55:40;;;;;;;7.18;3.83;;;12.00;99.90;;;;;;5036051;28;20172;-93
2020/12/15 06:58:06;;;;;;;3.65;3.22;;;12.00;99.90;;;;;;5018728;28;20263;-93
2020/12/15 07:00:33;;;;;;;5.32;3.58;;;12.00;99.90;;;;;;5018672;28;20199;-93
2020/12/15 07:03:01;;;;;;;3.92;3.13;;;12.00;99.90;;;;;;5056940;28;20243;-93
2020/12/15 07:05:29;;;;;;;5.40;3.38;;;12.10;99.90;;;;;;5057626;28;20159;-92
2020/12/15 07:08:00;;;;;;;3.58;3.13;;;12.10;99.90;;;;;;5057519;28;20191;-93
2020/12/15 07:10:28;;;;;;;7.75;3.22;;;12.20;99.90;;;;;;5058211;28;20157;-92
2020/12/15 07:12:54;;;;;;;4.30;2.92;;;12.20;99.90;;;;;;5038308;28;20167;-93
2020/12/15 07:15:21;;;;;;;5.32;3.05;;;12.20;99.90;;;;;;5047302;28;20190;-93
2020/12/15 07:17:48;;;;;;;5.53;2.75;;;12.20;99.90;;;;;;5049915;28;20168;-93
2020/12/15 07:20:15;;;;;;;4.53;2.80;;;12.20;99.90;;;;;;5040860;28;20228;-92
2020/12/15 07:22:41;;;;;;;3.25;2.88;;;12.20;99.90;;;;;;5024714;28;20198;-93
2020/12/15 07:25:08;;;;;;;3.70;2.80;;;12.20;99.90;;;;;;5024557;28;20171;-92
2020/12/15 07:27:37;;;;;;;3.17;2.67;;;12.30;99.90;;;;;;5042017;28;20230;-93
2020/12/15 07:30:06;;;;;;;2.97;2.58;;;12.30;99.90;;;;;;5039727;28;20247;-92
2020/12/15 07:32:36;;;;;;;7.50;3.05;;;12.30;99.90;;;;;;5055843;28;20191;-93
2020/12/15 07:35:07;;;;;;;3.22;2.90;;;12.20;99.90;;;;;;5054160;28;20233;-93
2020/12/15 07:37:41;;;;;;;5.03;3.15;;;12.30;99.90;;;;;;5037583;28;20175;-93
2020/12/15 07:40:10;;;;;;;3.53;3.08;;;12.20;99.90;;;;;;5038496;28;20495;-92
2020/12/15 07:42:36;;;;;;;4.15;3.08;;;12.20;99.90;;;;;;5038788;28;20190;-93
2020/12/15 07:45:09;;;;;;;6.00;2.83;;;12.20;99.90;;;;;;5039036;28;20536;-93
2020/12/15 07:47:40;;;;;;;5.38;3.15;;;12.20;99.90;;;;;;5039532;28;20184;-93
2020/12/15 07:50:05;;;;;;;5.20;4.05;;;12.30;99.90;;;;;;5038473;28;20168;-93
2020/12/15 07:52:36;;;;;;;5.00;3.42;;;12.30;99.90;;;;;;5022666;28;20651;-92
2020/12/15 07:55:09;;;;;;;6.30;3.25;;;12.30;99.90;;;;;;5039352;28;20188;-93
2020/12/15 07:57:37;;;;;;;3.58;3.25;;;12.30;99.90;;;;;;5037598;28;20172;-93
2020/12/15 08:00:16;;;;;;;3.45;3.10;;;12.40;99.90;;;;;;5037603;28;20172;-92
2020/12/15 08:02:44;;;;;;;4.53;3.30;;;12.30;99.90;;;;;;5038766;28;20176;-94
2020/12/15 08:05:15;;;;;;;3.63;3.30;;;12.30;99.90;;;;;;5018584;28;20193;-94
2020/12/15 08:07:46;;;;;;;4.45;3.03;;;12.30;99.90;;;;;;5038118;28;20187;-95
2020/12/15 08:10:13;;;;;;;3.53;3.22;;;12.30;99.90;;;;;;5042211;28;20168;-94
2020/12/15 08:12:40;;;;;;;4.85;3.08;;;12.30;99.90;;;;;;5039687;28;20180;-95
2020/12/15 08:15:06;;;;;;;5.43;3.63;;;12.20;99.90;;;;;;5038031;28;20172;-94
2020/12/15 08:17:33;;;;;;;5.53;4.20;;;12.20;99.90;;;;;;5038657;28;20180;-93
2020/12/15 08:20:07;;;;;;;8.57;4.38;;;12.20;99.90;;;;;;5038024;28;20172;-93
2020/12/15 08:22:41;;;;;;;5.57;4.00;;;12.20;99.90;;;;;;5039267;28;20234;-92
2020/12/15 08:25:13;;;;;;;6.75;4.32;;;12.20;99.90;;;;;;5037868;28;20171;-93
2020/12/15 08:27:38;;;;;;;4.68;3.80;;;12.20;99.90;;;;;;5076628;28;20183;-94
2020/12/15 08:30:17;;;;;;;5.30;4.70;;;12.30;99.90;;;;;;5060170;28;20161;-93
2020/12/15 08:32:48;;;;;;;9.00;4.88;;;12.30;99.90;;;;;;5055444;28;20700;-85
2020/12/15 08:35:21;;;;;;;8.45;6.10;;;12.30;99.90;;;;;;5036244;28;20176;-86
2020/12/15 08:37:52;;;;;;;5.75;4.63;;;12.40;99.90;;;;;;5035533;28;20172;-86
2020/12/15 08:40:18;;;;;;;6.63;5.70;;;12.40;99.90;;;;;;5034781;28;20251;-86
2020/12/15 08:42:46;;;;;;;6.05;5.45;;;12.40;99.90;;;;;;5035578;28;20172;-85
2020/12/15 08:45:16;;;;;;;9.75;6.53;;;12.40;99.90;;;;;;5047476;28;20164;-86
2020/12/15 08:47:47;;;;;;;7.22;5.97;;;12.40;99.90;;;;;;5048723;28;20243;-85
2020/12/15 08:50:14;;;;;;;6.15;5.55;;;12.40;99.90;;;;;;5038553;28;20247;-86
2020/12/15 08:52:41;;;;;;;8.35;6.32;;;12.40;99.90;;;;;;5035021;28;20589;-86
2020/12/15 08:55:07;;;;;;;6.38;5.78;;;12.30;99.90;;;;;;5036462;28;20247;-86
2020/12/15 08:57:33;;;;;;;7.00;6.30;;;12.30;99.90;;;;;;5034757;28;20172;-85
2020/12/15 09:00:16;;;;;;;8.02;7.28;;;12.30;99.90;;;;;;5035024;28;20191;-85
2020/12/15 09:02:42;;;;;;;8.30;6.35;;;12.30;99.90;;;;;;5034269;28;20172;-85
2020/12/15 09:05:10;;;;;;;6.90;6.38;;;12.30;99.90;;;;;;5014956;28;20196;-85
2020/12/15 09:07:37;;;;;;;10.30;6.43;;;12.30;99.90;;;;;;5031310;28;20251;-85
2020/12/15 09:10:16;;;;;;;10.20;7.18;;;12.40;99.90;;;;;;5031228;28;20177;-85
2020/12/15 09:12:47;;;;;;;9.90;7.05;;;12.40;99.90;;;;;;5031701;28;20536;-85
2020/12/15 09:15:13;;;;;;;9.85;6.85;;;12.40;99.90;;;;;;5016517;28;20251;-85
2020/12/15 09:17:39;;;;;;;8.95;6.57;;;12.40;99.90;;;;;;5031263;28;20255;-85
2020/12/15 09:20:08;;;;;;;8.43;7.25;;;12.50;99.90;;;;;;5030989;28;20200;-85
2020/12/15 09:22:37;;;;;;;8.40;7.57;;;12.50;99.90;;;;;;5030959;28;20173;-85
2020/12/15 09:25:23;;;;;;;8.05;7.25;;;12.50;99.90;;;;;;5031042;28;20207;-85
2020/12/15 09:27:49;;;;;;;8.75;7.53;;;12.50;99.90;;;;;;5030934;28;20173;-84
2020/12/15 09:30:20;;;;;;;9.70;8.55;;;12.50;99.90;;;;;;5030699;28;20633;-84
2020/12/15 09:32:46;;;;;;;13.07;7.50;;;12.50;99.90;;;;;;5044284;28;20672;-84
2020/12/15 09:35:12;;;;;;;8.32;7.47;;;12.50;99.90;;;;;;5034293;28;20200;-85
2020/12/15 09:37:39;;;;;;;8.23;7.55;;;12.50;99.90;;;;;;5016510;28;20176;-85
2020/12/15 09:40:10;;;;;;;14.27;9.15;;;12.60;99.90;;;;;;5033608;28;20190;-85
2020/12/15 09:42:43;;;;;;;9.63;8.73;;;12.70;99.90;;;;;;5033716;28;20179;-78
2020/12/15 09:45:08;;;;;;;15.05;8.75;;;12.70;99.90;;;;;;5032882;28;20672;-76
2020/12/15 09:47:40;;;;;;;11.45;9.68;;;12.80;99.90;;;;;;5033515;28;20172;-77
2020/12/15 09:50:05;;;;;;;11.20;8.93;;;12.80;99.90;;;;;;5033901;28;20171;-78
2020/12/15 09:52:31;;;;;;;10.63;9.45;;;12.90;99.90;;;;;;5033293;28;20263;-79
2020/12/15 09:54:57;;;;;;;10.00;9.00;;;13.00;99.90;;;;;;5013118;28;20200;-78
2020/12/15 09:57:22;;;;;;;10.23;8.85;;;13.00;99.90;;;;;;5044275;28;20638;-78
2020/12/15 09:59:48;;;;;;;9.32;8.30;;;13.00;99.90;;;;;;5033308;28;20179;-77
2020/12/15 10:02:14;;;;;;;17.15;9.85;;;12.90;99.90;;;;;;5033071;28;20180;-77
2020/12/15 10:04:39;;;;;;;11.20;9.30;;;12.80;99.90;;;;;;5033160;28;20176;-78
2020/12/15 10:07:05;;;;;;;10.88;9.13;;;12.80;99.90;;;;;;5034430;28;20168;-78
2020/12/15 10:09:31;;;;;;;10.90;9.80;;;12.70;99.90;;;;;;5049582;28;20647;-80
2020/12/15 10:11:56;;;;;;;15.13;10.02;;;12.60;99.90;;;;;;5032916;28;20198;-79
2020/12/15 10:14:22;;;;;;;17.83;10.35;;;12.50;99.90;;;;;;5028906;28;20292;-79
2020/12/15 10:16:47;;;;;;;17.33;10.07;;;12.60;99.90;;;;;;5013350;28;20243;-79
2020/12/15 10:19:13;;;;;;;11.05;9.90;;;12.60;99.90;;;;;;4996577;28;20173;-79
2020/12/15 10:21:39;;;;;;;10.68;9.45;;;12.60;99.90;;;;;;5025270;28;20219;-79
2020/12/15 10:24:04;;;;;;;11.02;9.88;;;12.60;99.90;;;;;;5012461;28;20192;-79
2020/12/15 10:26:30;;;;;;;17.38;9.93;;;12.60;99.90;;;;;;5014396;28;20263;-78
2020/12/15 10:28:56;;;;;;;11.73;10.52;;;12.60;99.90;;;;;;5029524;28;20196;-80
2020/12/15 10:31:23;;;;;;;11.65;10.55;;;12.70;99.90;;;;;;5014191;28;20680;-79
2020/12/15 10:33:50;;;;;;;14.57;9.90;;;12.70;99.90;;;;;;5014144;28;20200;-78
2020/12/15 10:36:16;;;;;;;11.93;10.73;;;12.70;99.90;;;;;;5029177;28;20173;-79
2020/12/15 10:38:42;;;;;;;18.50;11.20;;;12.60;99.90;;;;;;5031971;28;20177;-80
2020/12/15 10:41:08;;;;;;;12.70;9.93;;;12.60;99.90;;;;;;5032664;28;20234;-81
2020/12/15 10:43:34;;;;;;;19.85;9.93;;;12.50;99.90;;;;;;5016245;28;20182;-80
2020/12/15 10:46:00;;;;;;;11.77;10.30;;;12.60;99.90;;;;;;5032600;28;20172;-80
2020/12/15 10:48:26;;;;;;;14.43;10.35;;;12.50;99.90;;;;;;5032458;28;20176;-79
2020/12/15 10:50:51;;;;;;;12.60;11.25;;;12.50;99.90;;;;;;5033543;28;20160;-79
2020/12/15 10:53:18;;;;;;;20.13;12.00;;;12.60;99.90;;;;;;5014239;28;20669;-82
2020/12/15 10:55:50;;;;;;;32.80;20.38;;;12.60;99.90;;;;;;5034917;28;20179;-81
2020/12/15 10:58:17;;;;;;;30.63;17.55;;;12.60;99.90;;;;;;5045464;28;20187;-80
2020/12/15 11:00:43;;;;;;;13.63;12.25;;;12.60;99.90;;;;;;5033748;28;20631;-79
2020/12/15 11:03:08;;;;;;;13.15;11.85;;;12.50;99.90;;;;;;5031749;28;20207;-80
2020/12/15 11:05:34;;;;;;;12.32;11.10;;;12.50;99.90;;;;;;4999646;28;20263;-80
2020/12/15 11:08:00;;;;;;;12.40;11.13;;;12.50;99.90;;;;;;5015639;28;20176;-79
2020/12/15 11:10:26;;;;;;;15.13;10.95;;;12.50;99.90;;;;;;5033068;28;20643;-79
2020/12/15 11:12:52;;;;;;;17.58;11.75;;;12.50;99.90;;;;;;5031714;28;20175;-79
2020/12/15 11:15:17;;;;;;;13.68;11.38;;;12.60;99.90;;;;;;5041087;28;20175;-79
2020/12/15 11:17:43;;;;;;;20.35;11.82;;;12.70;99.90;;;;;;5032094;28;20169;-78
2020/12/15 11:20:08;;;;;;;14.50;11.35;;;12.70;99.90;;;;;;5031963;28;20187;-78
2020/12/15 11:22:34;;;;;;;12.02;10.93;;;12.70;99.90;;;;;;5015447;28;20172;-78
2020/12/15 11:25:00;;;;;;;17.98;11.43;;;12.70;99.90;;;;;;5031511;28;20180;-79
2020/12/15 11:27:27;;;;;;;14.27;11.38;;;12.80;99.90;;;;;;5033149;28;20511;-79
2020/12/15 11:29:52;;;;;;;13.30;11.65;;;12.80;99.90;;;;;;5033182;28;20172;-79
2020/12/15 11:32:18;;;;;;;14.55;11.00;;;12.80;99.90;;;;;;5032850;28;20183;-78
2020/12/15 11:34:44;;;;;;;12.35;11.20;;;12.80;99.90;;;;;;5034530;28;20207;-78
2020/12/15 11:37:12;;;;;;;12.55;11.35;;;12.80;99.90;;;;;;5015742;28;20177;-78
2020/12/15 11:39:39;;;;;;;15.73;11.15;;;12.80;99.90;;;;;;5030722;28;20180;-79
2020/12/15 11:42:08;;;;;;;12.38;11.10;;;12.70;99.90;;;;;;5031760;28;20188;-78
2020/12/15 11:44:35;;;;;;;15.95;11.73;;;12.70;99.90;;;;;;5015620;28;20191;-78
2020/12/15 11:47:01;;;;;;;12.07;10.93;;;12.80;99.90;;;;;;5031528;28;20263;-78
2020/12/15 11:49:27;;;;;;;12.85;11.45;;;12.80;99.90;;;;;;5031525;28;20203;-78
2020/12/15 11:51:56;;;;;;;13.02;11.40;;;12.90;99.90;;;;;;5015545;28;20222;-78
2020/12/15 11:54:22;;;;;;;14.68;11.23;;;13.00;99.90;;;;;;5031902;28;20227;-79
2020/12/15 11:56:50;;;;;;;13.10;11.73;;;13.10;99.90;;;;;;5031923;28;20498;-80
2020/12/15 11:59:16;;;;;;;12.45;11.25;;;13.10;99.90;;;;;;5032839;28;20669;-78
2020/12/15 12:01:42;;;;;;;13.63;11.38;;;13.10;99.90;;;;;;5035058;28;20645;-79
2020/12/15 12:04:08;;;;;;;17.92;12.32;;;13.10;99.90;;;;;;5036363;28;20180;-78
2020/12/15 12:06:34;;;;;;;14.50;11.40;;;13.30;99.90;;;;;;5036622;28;20175;-78
2020/12/15 12:09:01;;;;;;;12.70;11.35;;;13.40;99.90;;;;;;5035222;28;20212;-79
2020/12/15 12:11:27;;;;;;;12.63;10.55;;;13.50;99.90;;;;;;5035378;28;20267;-79
2020/12/15 12:13:53;;;;;;;11.82;10.65;;;13.30;99.90;;;;;;5036176;28;20657;-79
2020/12/15 12:16:19;;;;;;;12.25;11.02;;;13.30;99.90;;;;;;5034785;28;20274;-85
2020/12/15 12:18:44;;;;;;;10.95;9.85;;;13.30;99.90;;;;;;5035428;28;20203;-84
2020/12/15 12:21:10;;;;;;;11.77;10.30;;;13.30;99.90;;;;;;5035298;28;20180;-84
2020/12/15 12:23:36;;;;;;;10.52;9.48;;;13.40;99.90;;;;;;5035188;28;20199;-85
2020/12/15 12:26:01;;;;;;;10.13;9.20;;;13.40;99.90;;;;;;5035238;28;20183;-85
2020/12/15 12:28:27;;;;;;;18.15;11.45;;;13.50;99.90;;;;;;5018819;28;20258;-85
2020/12/15 12:30:53;;;;;;;23.48;10.45;;;13.30;99.90;;;;;;5036933;28;20172;-85
2020/12/15 12:33:18;;;;;;;12.20;9.27;;;13.40;99.90;;;;;;5036165;28;20239;-84
2020/12/15 12:35:51;;;;;;;12.32;9.70;;;13.40;99.90;;;;;;5035207;28;20196;-84
2020/12/15 12:38:17;;;;;;;10.18;8.70;;;14.00;99.90;;;;;;5019357;28;20528;-84
2020/12/15 12:40:42;;;;;;;9.38;8.30;;;15.00;99.90;;;;;;5035713;28;20172;-84
2020/12/15 12:43:08;;;;;;;10.35;6.90;;;16.20;99.90;;;;;;5019384;28;20180;-84
2020/12/15 12:45:35;;;;;;;8.80;6.57;;;16.40;99.90;;;;;;5018306;28;20226;-84